Time;durP1;ratioP1;P1;durP2;ratioP2;P2;SDS_P1;SDS_P2;PMS_P1;PMS_P2;Temp;Humidity;BMP_temperature;BMP_pressure;BME280_temperature;BME280_humidity;BME280_pressure;Samples;Min_cycle;Max_cycle;Signal;HPM_P1;HPM_P2
2021/03/23 00:00:19;;;;;;;15.82;11.18;;;5.20;99.90;;;;;;4947799;29;20631;-68
2021/03/23 00:02:50;;;;;;;16.98;10.73;;;5.30;99.90;;;;;;4948931;28;20409;-66
2021/03/23 00:05:17;;;;;;;13.68;9.55;;;5.30;99.90;;;;;;4948831;29;20221;-68
2021/03/23 00:07:44;;;;;;;16.00;10.20;;;5.20;99.90;;;;;;4946689;29;20674;-68
2021/03/23 00:10:12;;;;;;;15.80;9.95;;;5.20;99.90;;;;;;4947354;28;20301;-67
2021/03/23 00:12:38;;;;;;;15.63;9.52;;;5.20;99.90;;;;;;4948897;29;20212;-67
2021/03/23 00:15:09;;;;;;;14.40;9.60;;;5.20;99.90;;;;;;4948556;29;20248;-67
2021/03/23 00:17:36;;;;;;;20.13;10.07;;;5.20;99.90;;;;;;4948600;29;20220;-67
2021/03/23 00:20:03;;;;;;;15.30;9.38;;;5.20;99.90;;;;;;4947892;29;20205;-67
2021/03/23 00:22:32;;;;;;;11.82;9.05;;;5.20;99.90;;;;;;4948285;29;20213;-68
2021/03/23 00:24:59;;;;;;;12.55;9.70;;;5.20;99.90;;;;;;4948701;29;20209;-68
2021/03/23 00:27:25;;;;;;;13.23;9.52;;;5.20;99.90;;;;;;4948422;29;20201;-67
2021/03/23 00:29:51;;;;;;;11.32;8.50;;;5.20;99.90;;;;;;4948599;28;20689;-67
2021/03/23 00:32:19;;;;;;;13.95;9.23;;;5.20;99.90;;;;;;4952277;29;20217;-67
2021/03/23 00:34:45;;;;;;;11.68;8.82;;;5.20;99.90;;;;;;4952405;29;20209;-68
2021/03/23 00:37:12;;;;;;;12.80;9.30;;;5.20;99.90;;;;;;4952102;29;20677;-69
2021/03/23 00:39:39;;;;;;;15.70;9.20;;;5.10;99.90;;;;;;4951479;29;20232;-66
2021/03/23 00:42:07;;;;;;;12.32;9.02;;;5.20;99.90;;;;;;4951920;29;20209;-69
2021/03/23 00:44:35;;;;;;;12.50;9.30;;;5.20;99.90;;;;;;4951892;29;20205;-68
2021/03/23 00:47:01;;;;;;;13.07;8.77;;;5.10;99.90;;;;;;4952122;29;20211;-67
2021/03/23 00:49:28;;;;;;;12.57;8.90;;;5.10;99.90;;;;;;4951215;28;20255;-68
2021/03/23 00:51:55;;;;;;;12.27;9.13;;;5.10;99.90;;;;;;4952198;29;20201;-67
2021/03/23 00:54:22;;;;;;;10.38;8.45;;;5.10;99.90;;;;;;4951639;29;20207;-68
2021/03/23 00:56:48;;;;;;;12.35;8.73;;;5.10;99.90;;;;;;4951571;29;20239;-68
2021/03/23 00:59:14;;;;;;;14.40;8.57;;;5.10;99.90;;;;;;4951156;29;20584;-67
2021/03/23 01:01:41;;;;;;;14.70;9.75;;;5.10;99.90;;;;;;4951940;29;20210;-68
2021/03/23 01:04:08;;;;;;;13.07;9.57;;;5.10;99.90;;;;;;4951674;29;20201;-67
2021/03/23 01:06:35;;;;;;;12.35;8.68;;;5.10;99.90;;;;;;4949745;29;20372;-67
2021/03/23 01:09:02;;;;;;;14.75;8.75;;;5.10;99.90;;;;;;4951233;29;20305;-67
2021/03/23 01:11:28;;;;;;;12.38;9.35;;;5.10;99.90;;;;;;4951527;29;20209;-67
2021/03/23 01:13:54;;;;;;;14.73;10.27;;;5.10;99.90;;;;;;4951534;29;20205;-67
2021/03/23 01:16:21;;;;;;;13.20;9.15;;;5.10;99.90;;;;;;4951661;29;20236;-68
2021/03/23 01:18:47;;;;;;;13.38;9.55;;;5.10;99.90;;;;;;4951509;28;21037;-68
2021/03/23 01:21:13;;;;;;;13.65;9.60;;;5.20;99.90;;;;;;4951368;29;20565;-67
2021/03/23 01:23:40;;;;;;;18.02;10.38;;;5.20;99.90;;;;;;4951635;29;20215;-67
2021/03/23 01:26:07;;;;;;;11.98;9.00;;;5.20;99.90;;;;;;4951172;29;20705;-68
2021/03/23 01:28:33;;;;;;;10.75;8.45;;;5.20;99.90;;;;;;4950486;29;20246;-68
2021/03/23 01:30:59;;;;;;;14.10;10.13;;;5.20;99.90;;;;;;4950979;29;20715;-68
2021/03/23 01:33:26;;;;;;;11.30;9.45;;;5.20;99.90;;;;;;4951262;29;20217;-68
2021/03/23 01:35:52;;;;;;;11.95;8.52;;;5.20;99.90;;;;;;4951059;29;20244;-69
2021/03/23 01:38:19;;;;;;;17.02;9.80;;;5.20;99.90;;;;;;4950390;29;20213;-67
2021/03/23 01:40:47;;;;;;;13.55;9.60;;;5.10;99.90;;;;;;4950783;28;20397;-69
2021/03/23 01:43:22;;;;;;;13.10;10.50;;;5.10;99.90;;;;;;4950284;29;20201;-67
2021/03/23 01:45:48;;;;;;;12.77;9.60;;;5.10;99.90;;;;;;4950825;29;20586;-67
2021/03/23 01:48:24;;;;;;;13.50;9.27;;;5.10;99.90;;;;;;4950200;29;20300;-67
2021/03/23 01:50:54;;;;;;;13.43;9.45;;;5.10;99.90;;;;;;4950800;29;20532;-68
2021/03/23 01:53:27;;;;;;;13.50;9.32;;;5.20;99.90;;;;;;4951018;29;20247;-67
2021/03/23 01:55:56;;;;;;;13.40;9.75;;;5.20;99.90;;;;;;4950309;29;20228;-68
2021/03/23 01:58:23;;;;;;;13.20;9.30;;;5.10;99.90;;;;;;4949987;29;20574;-67
2021/03/23 02:00:50;;;;;;;18.40;10.75;;;5.10;99.90;;;;;;4950537;29;20268;-69
2021/03/23 02:03:17;;;;;;;11.55;9.18;;;5.10;99.90;;;;;;4950118;29;20215;-68
2021/03/23 02:05:45;;;;;;;14.45;10.10;;;5.10;99.90;;;;;;4948747;29;20219;-67
2021/03/23 02:08:11;;;;;;;13.55;10.07;;;5.10;99.90;;;;;;4949611;29;20205;-68
2021/03/23 02:10:38;;;;;;;11.77;9.73;;;5.10;99.90;;;;;;4950318;29;20211;-68
2021/03/23 02:13:07;;;;;;;13.82;9.82;;;5.10;99.90;;;;;;4950772;29;20220;-68
2021/03/23 02:15:34;;;;;;;15.43;9.90;;;5.10;99.90;;;;;;4950253;29;20228;-67
2021/03/23 02:18:17;;;;;;;12.55;9.13;;;5.10;99.90;;;;;;4950660;29;20573;-67
2021/03/23 02:21:02;;;;;;;13.25;9.93;;;5.10;99.90;;;;;;4950800;28;20224;-68
2021/03/23 02:23:33;;;;;;;17.05;10.90;;;5.10;99.90;;;;;;4950410;29;20292;-67
2021/03/23 02:26:00;;;;;;;10.77;9.05;;;5.10;99.90;;;;;;4950389;29;20745;-67
2021/03/23 02:28:27;;;;;;;12.55;9.75;;;5.10;99.90;;;;;;4949773;29;20208;-68
2021/03/23 02:30:55;;;;;;;14.70;10.70;;;5.10;99.90;;;;;;4949855;29;20213;-66
2021/03/23 02:33:22;;;;;;;13.85;9.77;;;5.10;99.90;;;;;;4950258;29;20210;-67
2021/03/23 02:35:48;;;;;;;11.65;8.25;;;5.10;99.90;;;;;;4949850;29;20248;-68
2021/03/23 02:38:16;;;;;;;16.58;10.82;;;5.10;99.90;;;;;;4949627;29;20602;-68
2021/03/23 02:40:43;;;;;;;15.93;9.82;;;5.10;99.90;;;;;;4949679;29;20246;-67
2021/03/23 02:43:09;;;;;;;12.18;9.27;;;5.10;99.90;;;;;;4950336;28;20209;-66
2021/03/23 02:45:35;;;;;;;16.15;10.90;;;5.10;99.90;;;;;;4950009;29;20209;-68
2021/03/23 02:48:02;;;;;;;13.65;10.35;;;5.00;99.90;;;;;;4949060;28;20295;-68
2021/03/23 02:50:28;;;;;;;16.25;11.13;;;5.10;99.90;;;;;;4950027;29;20297;-68
2021/03/23 02:52:55;;;;;;;15.18;10.43;;;5.10;99.90;;;;;;4949560;28;20766;-68
2021/03/23 02:55:22;;;;;;;13.95;11.52;;;5.10;99.90;;;;;;4949937;29;20240;-69
2021/03/23 02:57:48;;;;;;;20.63;12.77;;;5.10;99.90;;;;;;4949543;29;20631;-67
2021/03/23 03:00:18;;;;;;;16.73;11.65;;;5.10;99.90;;;;;;4948868;29;20205;-67
2021/03/23 03:02:44;;;;;;;18.33;13.45;;;5.10;99.90;;;;;;4949642;29;20217;-66
2021/03/23 03:05:13;;;;;;;18.38;13.30;;;5.10;99.90;;;;;;4949562;29;20209;-68
2021/03/23 03:07:39;;;;;;;18.67;12.18;;;5.10;99.90;;;;;;4948175;29;20308;-69
2021/03/23 03:10:07;;;;;;;18.70;11.80;;;5.10;99.90;;;;;;4949571;29;20790;-67
2021/03/23 03:12:34;;;;;;;22.05;14.27;;;5.00;99.90;;;;;;4948917;28;20209;-68
2021/03/23 03:15:01;;;;;;;18.60;12.82;;;5.00;99.90;;;;;;4949634;28;20292;-68
2021/03/23 03:17:27;;;;;;;19.15;12.15;;;5.00;99.90;;;;;;4949587;29;20271;-68
2021/03/23 03:19:53;;;;;;;20.75;12.05;;;5.10;99.90;;;;;;4948608;28;20205;-68
2021/03/23 03:22:20;;;;;;;21.33;12.15;;;5.10;99.90;;;;;;4949498;28;20236;-69
2021/03/23 03:24:46;;;;;;;21.63;12.80;;;5.10;99.90;;;;;;4949107;28;20235;-68
2021/03/23 03:27:12;;;;;;;14.75;10.65;;;5.10;99.90;;;;;;4949239;29;20205;-68
2021/03/23 03:29:40;;;;;;;22.67;13.20;;;5.10;99.90;;;;;;4948088;29;20239;-67
2021/03/23 03:32:07;;;;;;;16.30;12.02;;;5.00;99.90;;;;;;4949516;29;20674;-67
2021/03/23 03:34:33;;;;;;;19.27;14.02;;;5.00;99.90;;;;;;4949073;28;20300;-66
2021/03/23 03:37:00;;;;;;;22.05;13.95;;;5.00;99.90;;;;;;4949547;28;20667;-67
2021/03/23 03:39:26;;;;;;;21.73;14.30;;;5.00;99.90;;;;;;4947959;29;20214;-67
2021/03/23 03:41:53;;;;;;;19.17;12.95;;;5.00;99.90;;;;;;4949164;28;20209;-67
2021/03/23 03:44:19;;;;;;;20.80;13.75;;;5.00;99.90;;;;;;4948949;29;20205;-67
2021/03/23 03:46:46;;;;;;;19.20;12.82;;;5.00;99.90;;;;;;4949689;29;20239;-67
2021/03/23 03:49:13;;;;;;;20.98;13.55;;;5.00;99.90;;;;;;4948246;29;20575;-68
2021/03/23 03:51:39;;;;;;;20.25;13.77;;;5.10;99.90;;;;;;4948985;28;20296;-66
2021/03/23 03:54:06;;;;;;;23.67;15.02;;;5.10;99.90;;;;;;4948952;29;20666;-68
2021/03/23 03:56:32;;;;;;;18.95;13.27;;;5.10;99.90;;;;;;4948630;29;20321;-68
2021/03/23 03:58:58;;;;;;;23.90;15.10;;;5.10;99.90;;;;;;4948840;29;20212;-66
2021/03/23 04:01:25;;;;;;;25.00;15.18;;;5.00;99.90;;;;;;4948921;29;20304;-67
2021/03/23 04:03:52;;;;;;;24.05;14.07;;;5.10;99.90;;;;;;4949017;28;20685;-67
2021/03/23 04:06:18;;;;;;;20.63;13.70;;;5.00;99.90;;;;;;4950568;29;20244;-68
2021/03/23 04:08:45;;;;;;;20.05;13.75;;;5.10;99.90;;;;;;4952019;29;20228;-66
2021/03/23 04:11:12;;;;;;;18.75;12.90;;;5.10;99.90;;;;;;4953119;28;20320;-68
2021/03/23 04:13:39;;;;;;;16.58;12.52;;;5.10;99.90;;;;;;4952836;29;20201;-67
2021/03/23 04:16:06;;;;;;;20.85;11.45;;;5.10;99.90;;;;;;4952685;29;20236;-67
2021/03/23 04:18:33;;;;;;;19.35;12.25;;;5.00;99.90;;;;;;4951648;28;20205;-67
2021/03/23 04:21:03;;;;;;;15.05;10.98;;;5.10;99.90;;;;;;4952289;29;20209;-68
2021/03/23 04:23:33;;;;;;;16.15;12.05;;;5.20;99.90;;;;;;4952569;29;20311;-68
2021/03/23 04:25:59;;;;;;;17.50;11.70;;;5.10;99.90;;;;;;4952698;29;20645;-67
2021/03/23 04:28:26;;;;;;;20.85;14.65;;;5.10;99.90;;;;;;4951854;29;20205;-67
2021/03/23 04:30:53;;;;;;;18.88;14.20;;;5.10;99.90;;;;;;4951971;29;20693;-67
2021/03/23 04:33:21;;;;;;;22.42;13.98;;;5.00;99.90;;;;;;4952126;29;20213;-67
2021/03/23 04:35:49;;;;;;;22.23;14.43;;;5.00;99.90;;;;;;4952088;29;20253;-66
2021/03/23 04:38:19;;;;;;;20.27;13.20;;;5.10;99.90;;;;;;4951855;29;20205;-68
2021/03/23 04:40:47;;;;;;;24.08;14.30;;;5.10;99.90;;;;;;4951986;29;20979;-67
2021/03/23 04:43:20;;;;;;;23.50;15.40;;;5.10;99.90;;;;;;4952745;29;20212;-67
2021/03/23 04:45:46;;;;;;;22.67;15.38;;;5.00;99.90;;;;;;4952361;29;20612;-67
2021/03/23 04:48:13;;;;;;;23.35;14.50;;;5.00;99.90;;;;;;4951907;29;20217;-67
2021/03/23 04:50:40;;;;;;;19.48;14.90;;;4.90;99.90;;;;;;4951818;29;20335;-67
2021/03/23 04:53:06;;;;;;;19.55;13.77;;;4.90;99.90;;;;;;4951948;29;20632;-67
2021/03/23 04:55:33;;;;;;;22.05;14.10;;;4.90;99.90;;;;;;4951588;29;20299;-68
2021/03/23 04:57:59;;;;;;;24.50;15.63;;;4.90;99.90;;;;;;4951754;29;20568;-67
2021/03/23 05:00:26;;;;;;;24.42;17.63;;;4.90;99.90;;;;;;4951622;29;20215;-68
2021/03/23 05:02:52;;;;;;;23.40;15.38;;;4.90;99.90;;;;;;4951752;29;20572;-68
2021/03/23 05:05:19;;;;;;;23.85;15.75;;;4.90;99.90;;;;;;4951756;29;20702;-67
2021/03/23 05:07:45;;;;;;;21.00;15.98;;;4.90;99.90;;;;;;4950381;29;20219;-67
2021/03/23 05:10:12;;;;;;;23.85;16.63;;;4.90;99.90;;;;;;4951285;29;20593;-67
2021/03/23 05:12:40;;;;;;;21.67;14.75;;;4.90;99.90;;;;;;4951727;29;20209;-67
2021/03/23 05:15:09;;;;;;;23.90;14.30;;;4.90;99.90;;;;;;4951497;29;20217;-67
2021/03/23 05:17:35;;;;;;;21.20;14.90;;;4.80;99.90;;;;;;4951073;28;20264;-68
2021/03/23 05:20:02;;;;;;;22.15;14.20;;;4.90;99.90;;;;;;4950947;29;20316;-67
2021/03/23 05:22:29;;;;;;;22.70;15.00;;;4.90;99.90;;;;;;4951034;29;20778;-66
2021/03/23 05:24:55;;;;;;;23.40;16.20;;;4.90;99.90;;;;;;4951232;29;20200;-68
2021/03/23 05:27:21;;;;;;;24.63;16.02;;;4.90;99.90;;;;;;4951480;29;20209;-68
2021/03/23 05:29:48;;;;;;;24.30;15.40;;;4.90;99.90;;;;;;4950562;29;20220;-68
2021/03/23 05:32:15;;;;;;;22.98;14.95;;;5.00;99.90;;;;;;4951014;28;20301;-68
2021/03/23 05:34:41;;;;;;;23.40;17.02;;;5.00;99.90;;;;;;4951240;29;20213;-67
2021/03/23 05:37:07;;;;;;;24.60;16.17;;;5.00;99.90;;;;;;4951256;29;20244;-67
2021/03/23 05:39:34;;;;;;;27.95;16.70;;;4.90;99.90;;;;;;4949737;29;20209;-68
2021/03/23 05:42:06;;;;;;;23.45;14.57;;;4.90;99.90;;;;;;4951350;28;20573;-67
2021/03/23 05:44:52;;;;;;;23.95;15.98;;;5.00;99.90;;;;;;4951355;29;20208;-68
2021/03/23 05:47:25;;;;;;;24.88;14.75;;;5.00;99.90;;;;;;4951314;29;20592;-68
2021/03/23 05:49:58;;;;;;;21.10;14.35;;;4.90;99.90;;;;;;4950466;29;20211;-67
2021/03/23 05:52:32;;;;;;;23.40;14.43;;;5.00;99.90;;;;;;4951269;29;20232;-67
2021/03/23 05:55:03;;;;;;;22.27;14.75;;;5.00;99.90;;;;;;4950809;29;20205;-68
2021/03/23 05:57:34;;;;;;;26.63;16.15;;;5.00;99.90;;;;;;4950914;29;20241;-68
2021/03/23 06:00:08;;;;;;;27.15;16.20;;;5.00;99.90;;;;;;4949728;29;20300;-68
2021/03/23 06:02:49;;;;;;;20.88;13.85;;;5.10;99.90;;;;;;4950887;29;20360;-67
2021/03/23 06:05:41;;;;;;;16.50;11.63;;;5.20;99.90;;;;;;4950678;29;20201;-67
2021/03/23 06:08:25;;;;;;;15.75;11.77;;;5.30;99.90;;;;;;4950029;29;20642;-67
2021/03/23 06:11:19;;;;;;;17.17;13.23;;;5.30;99.90;;;;;;4950322;29;20205;-68
2021/03/23 06:13:53;;;;;;;16.15;12.63;;;5.10;99.90;;;;;;4950862;29;20255;-68
2021/03/23 06:16:32;;;;;;;18.98;13.30;;;5.00;99.90;;;;;;4950172;29;20792;-66
2021/03/23 06:19:07;;;;;;;16.05;12.65;;;5.10;99.90;;;;;;4950260;29;20324;-67
2021/03/23 06:21:42;;;;;;;17.10;13.45;;;5.00;99.90;;;;;;4951362;29;20201;-67
2021/03/23 06:24:21;;;;;;;14.45;12.95;;;5.10;99.90;;;;;;4950604;29;20308;-67
2021/03/23 06:26:57;;;;;;;17.77;12.48;;;5.30;99.90;;;;;;4950354;29;20209;-67
2021/03/23 06:30:15;;;;;;;16.90;14.60;;;5.40;99.90;;;;;;4948300;29;20232;-67
2021/03/23 06:32:47;;;;;;;16.38;13.93;;;5.20;99.90;;;;;;4925272;28;20290;-66
2021/03/23 06:35:18;;;;;;;16.85;13.68;;;5.30;99.90;;;;;;4950052;29;20219;-67
2021/03/23 06:37:45;;;;;;;20.38;13.68;;;5.20;99.90;;;;;;4950456;29;20327;-68
2021/03/23 06:40:14;;;;;;;18.40;13.70;;;5.20;99.90;;;;;;4948509;28;20791;-68
2021/03/23 06:42:43;;;;;;;15.05;12.95;;;5.30;99.90;;;;;;4950283;29;20209;-68
2021/03/23 06:45:36;;;;;;;17.35;12.63;;;5.30;99.90;;;;;;4949676;29;20331;-68
2021/03/23 06:48:20;;;;;;;16.02;13.25;;;5.20;99.90;;;;;;4949259;29;20209;-67
2021/03/23 06:50:46;;;;;;;17.17;13.23;;;5.10;99.90;;;;;;4949717;28;20213;-68
2021/03/23 06:53:15;;;;;;;17.48;12.70;;;5.00;99.90;;;;;;4949451;29;20681;-68
2021/03/23 06:55:45;;;;;;;19.05;13.60;;;5.10;99.90;;;;;;4949772;29;20280;-69
2021/03/23 06:58:30;;;;;;;16.60;14.30;;;5.20;99.90;;;;;;4949133;29;20232;-69
2021/03/23 07:01:13;;;;;;;21.10;15.23;;;5.30;99.90;;;;;;4949417;29;20208;-67
2021/03/23 07:03:41;;;;;;;17.15;13.30;;;5.30;99.90;;;;;;4949855;29;20209;-67
2021/03/23 07:06:20;;;;;;;16.90;13.93;;;5.50;99.90;;;;;;4948249;29;20201;-68
2021/03/23 07:09:05;;;;;;;21.13;14.40;;;5.70;99.90;;;;;;4948764;29;20587;-69
2021/03/23 07:11:59;;;;;;;17.23;13.48;;;5.80;99.90;;;;;;4949443;28;20749;-68
2021/03/23 07:14:35;;;;;;;20.10;15.13;;;5.80;99.90;;;;;;4949589;29;20208;-69
2021/03/23 07:17:04;;;;;;;17.23;13.68;;;5.80;99.90;;;;;;4949322;29;20710;-67
2021/03/23 07:19:42;;;;;;;17.80;14.82;;;6.00;99.90;;;;;;4948577;29;20209;-69
2021/03/23 07:22:16;;;;;;;20.63;14.30;;;6.30;99.90;;;;;;4949331;29;20258;-68
2021/03/23 07:24:50;;;;;;;19.45;14.15;;;6.30;99.90;;;;;;4949938;29;20636;-69
2021/03/23 07:27:20;;;;;;;16.88;13.68;;;6.30;99.90;;;;;;4949096;29;20208;-68
2021/03/23 07:29:46;;;;;;;19.55;13.73;;;6.30;99.90;;;;;;4948705;28;20204;-67
2021/03/23 07:32:36;;;;;;;21.48;15.15;;;6.40;99.90;;;;;;4949269;29;20292;-69
2021/03/23 07:35:11;;;;;;;17.27;12.70;;;6.40;99.90;;;;;;4949556;29;20670;-67
2021/03/23 07:37:44;;;;;;;19.00;13.90;;;6.40;99.90;;;;;;4949133;29;20245;-63
2021/03/23 07:40:25;;;;;;;19.30;13.20;;;6.60;99.90;;;;;;4939176;28;20304;-69
2021/03/23 07:43:08;;;;;;;17.40;13.60;;;6.70;99.90;;;;;;4945504;29;20275;-71
2021/03/23 07:45:45;;;;;;;17.50;14.10;;;6.70;99.90;;;;;;4948790;28;20197;-68
2021/03/23 07:48:16;;;;;;;18.35;13.68;;;6.70;99.90;;;;;;4955596;28;20331;-68
2021/03/23 07:50:46;;;;;;;19.00;14.15;;;6.70;99.90;;;;;;4954721;28;20197;-68
2021/03/23 07:53:18;;;;;;;16.15;13.65;;;6.80;99.90;;;;;;4951030;28;20197;-68
2021/03/23 07:55:48;;;;;;;17.98;14.13;;;7.10;99.90;;;;;;4937691;28;20220;-69
2021/03/23 07:58:32;;;;;;;19.80;13.15;;;7.20;99.90;;;;;;4955527;28;20301;-68
2021/03/23 08:01:07;;;;;;;22.38;15.70;;;7.20;99.90;;;;;;4951473;28;20212;-69
2021/03/23 08:04:04;;;;;;;19.70;14.90;;;7.20;99.90;;;;;;4959149;28;20196;-66
2021/03/23 08:06:43;;;;;;;15.68;13.95;;;7.20;99.90;;;;;;4944819;28;20196;-69
2021/03/23 08:09:22;;;;;;;18.42;15.15;;;7.30;99.90;;;;;;4952754;28;20255;-69
2021/03/23 08:11:57;;;;;;;18.70;14.32;;;7.20;99.90;;;;;;4957199;28;20209;-68
2021/03/23 08:14:41;;;;;;;17.55;14.63;;;7.10;99.90;;;;;;4953588;28;20953;-68
2021/03/23 08:17:32;;;;;;;24.15;16.45;;;7.30;99.90;;;;;;4950339;28;20228;-68
2021/03/23 08:20:18;;;;;;;23.40;16.70;;;7.30;99.90;;;;;;4944153;28;20200;-68
2021/03/23 08:23:06;;;;;;;22.05;16.38;;;7.40;99.90;;;;;;4956906;28;20210;-68
2021/03/23 08:25:44;;;;;;;23.67;16.65;;;7.50;99.90;;;;;;4951131;28;20193;-68
2021/03/23 08:28:31;;;;;;;20.30;15.18;;;7.80;99.90;;;;;;4953131;28;20201;-68
2021/03/23 08:31:18;;;;;;;21.92;14.73;;;7.90;99.70;;;;;;4944106;28;20204;-68
2021/03/23 08:33:59;;;;;;;20.02;13.80;;;8.10;99.60;;;;;;4949213;28;20228;-67
2021/03/23 08:36:47;;;;;;;19.75;15.23;;;8.30;99.20;;;;;;4953541;28;20367;-69
2021/03/23 08:39:23;;;;;;;21.77;17.00;;;8.30;98.80;;;;;;4949797;28;20204;-69
2021/03/23 08:42:00;;;;;;;21.15;15.80;;;8.10;99.00;;;;;;4956610;28;20213;-69
2021/03/23 08:44:33;;;;;;;26.05;16.55;;;8.00;99.20;;;;;;4955803;28;20209;-69
2021/03/23 08:47:06;;;;;;;21.92;14.82;;;8.00;99.50;;;;;;4946900;28;20300;-67
2021/03/23 08:49:33;;;;;;;24.25;15.55;;;7.90;99.10;;;;;;4955416;28;20284;-70
2021/03/23 08:51:59;;;;;;;26.88;16.02;;;8.10;99.60;;;;;;4961820;28;20640;-68
2021/03/23 08:54:48;;;;;;;21.27;14.80;;;8.20;98.80;;;;;;4962786;28;20208;-69
2021/03/23 08:57:15;;;;;;;21.98;16.52;;;8.40;98.70;;;;;;4953648;28;20243;-69
2021/03/23 08:59:59;;;;;;;20.85;15.18;;;8.40;98.80;;;;;;4960600;28;20686;-68
2021/03/23 09:02:47;;;;;;;21.90;15.35;;;8.30;98.50;;;;;;4959430;28;20227;-68
2021/03/23 09:05:32;;;;;;;28.45;16.85;;;8.50;98.20;;;;;;4949957;28;20757;-68
2021/03/23 09:08:19;;;;;;;22.48;13.95;;;8.50;98.70;;;;;;4952561;28;20313;-67
2021/03/23 09:10:51;;;;;;;24.45;14.23;;;8.80;98.60;;;;;;4954245;28;20205;-68
2021/03/23 09:13:25;;;;;;;17.90;12.70;;;8.80;97.50;;;;;;4961558;28;20203;-69
2021/03/23 09:15:53;;;;;;;18.48;11.85;;;9.00;97.00;;;;;;4958257;28;20223;-68
2021/03/23 09:18:26;;;;;;;18.00;12.82;;;9.10;97.00;;;;;;4957422;28;20294;-68
2021/03/23 09:21:04;;;;;;;19.83;13.18;;;9.20;97.00;;;;;;4959510;28;20201;-68
2021/03/23 09:23:49;;;;;;;20.25;12.40;;;9.30;96.60;;;;;;4957318;28;20201;-68
2021/03/23 09:26:41;;;;;;;17.80;11.70;;;9.60;95.80;;;;;;4952654;28;20201;-68
2021/03/23 09:29:41;;;;;;;16.30;12.35;;;9.90;93.90;;;;;;4952794;28;20319;-69
2021/03/23 09:32:11;;;;;;;17.05;11.07;;;10.00;93.70;;;;;;4944906;28;20221;-68
2021/03/23 09:35:19;;;;;;;15.00;10.75;;;9.90;94.60;;;;;;4945915;29;20362;-68
2021/03/23 09:37:57;;;;;;;15.57;10.82;;;9.80;94.20;;;;;;4948523;28;20245;-69
2021/03/23 09:40:52;;;;;;;15.60;10.52;;;9.80;93.80;;;;;;4950546;28;20574;-68
2021/03/23 09:43:39;;;;;;;15.07;11.90;;;10.20;91.70;;;;;;4958945;28;20620;-69
2021/03/23 09:46:12;;;;;;;15.55;11.45;;;10.10;91.80;;;;;;4953742;28;20205;-68
2021/03/23 09:48:55;;;;;;;12.85;10.00;;;10.00;92.90;;;;;;4953611;28;20614;-69
2021/03/23 09:51:42;;;;;;;14.93;10.30;;;9.80;94.10;;;;;;4951873;28;20851;-67
2021/03/23 09:54:25;;;;;;;14.25;11.02;;;10.00;93.00;;;;;;4944107;28;20310;-69
2021/03/23 09:56:52;;;;;;;15.23;10.88;;;10.10;91.40;;;;;;4954891;28;20245;-68
2021/03/23 09:59:22;;;;;;;16.70;11.43;;;10.10;91.60;;;;;;4957059;28;20255;-67
2021/03/23 10:01:55;;;;;;;12.15;9.00;;;10.10;91.30;;;;;;4952871;28;20304;-68
2021/03/23 10:04:34;;;;;;;14.10;9.82;;;10.00;91.20;;;;;;4953727;28;20204;-68
2021/03/23 10:07:01;;;;;;;13.95;10.35;;;9.90;91.90;;;;;;4958065;28;20197;-67
2021/03/23 10:09:30;;;;;;;16.67;10.10;;;9.90;91.60;;;;;;4957411;28;20209;-68
2021/03/23 10:11:58;;;;;;;12.18;8.93;;;9.80;91.40;;;;;;4951762;28;20205;-69
2021/03/23 10:14:38;;;;;;;12.73;9.63;;;9.50;91.50;;;;;;4957072;28;20209;-68
2021/03/23 10:17:12;;;;;;;14.35;10.13;;;9.50;91.80;;;;;;4945105;28;20252;-68
2021/03/23 10:19:41;;;;;;;13.60;8.90;;;9.50;91.80;;;;;;4956359;28;20242;-68
2021/03/23 10:22:11;;;;;;;13.32;9.25;;;9.40;91.40;;;;;;4955445;28;21244;-68
2021/03/23 10:24:40;;;;;;;12.18;10.30;;;9.40;91.50;;;;;;4944886;28;20210;-69
2021/03/23 10:27:16;;;;;;;13.15;9.80;;;9.40;91.30;;;;;;4959158;28;20204;-68
2021/03/23 10:29:56;;;;;;;17.70;10.02;;;9.50;92.20;;;;;;4949001;28;20208;-68
2021/03/23 10:32:38;;;;;;;12.82;8.52;;;9.50;92.20;;;;;;4941766;29;20202;-68
2021/03/23 10:35:14;;;;;;;12.65;8.55;;;9.70;91.10;;;;;;4943355;29;20201;-67
2021/03/23 10:37:40;;;;;;;10.90;7.80;;;9.80;91.20;;;;;;4941673;28;20214;-70
2021/03/23 10:40:26;;;;;;;9.43;7.10;;;9.60;90.50;;;;;;4948381;28;20204;-68
2021/03/23 10:42:54;;;;;;;11.10;8.00;;;9.70;89.00;;;;;;4956088;28;20545;-68
2021/03/23 10:45:29;;;;;;;11.88;7.18;;;9.30;90.40;;;;;;4945913;28;20201;-69
2021/03/23 10:48:09;;;;;;;11.95;7.32;;;9.30;90.80;;;;;;4953577;28;20204;-67
2021/03/23 10:50:37;;;;;;;12.05;8.82;;;9.40;90.90;;;;;;4955674;28;20253;-68
2021/03/23 10:53:21;;;;;;;9.70;7.85;;;9.50;90.70;;;;;;4950345;28;20220;-68
2021/03/23 10:55:49;;;;;;;9.63;7.53;;;9.50;90.60;;;;;;4959896;28;20219;-68
2021/03/23 10:58:19;;;;;;;10.55;8.13;;;9.60;91.00;;;;;;4951649;28;20589;-68
2021/03/23 11:00:48;;;;;;;14.23;9.10;;;9.60;90.70;;;;;;4953440;28;20255;-69
2021/03/23 11:03:28;;;;;;;12.35;8.85;;;9.60;90.90;;;;;;4955297;28;20263;-69
2021/03/23 11:05:54;;;;;;;11.90;9.02;;;9.60;90.50;;;;;;4950578;28;20203;-68
2021/03/23 11:08:21;;;;;;;10.77;8.93;;;9.50;90.50;;;;;;4951350;28;20283;-69
2021/03/23 11:10:48;;;;;;;10.38;8.73;;;9.40;90.10;;;;;;4959681;28;20217;-69
2021/03/23 11:13:16;;;;;;;11.82;9.00;;;9.30;90.60;;;;;;4956050;28;20204;-69
2021/03/23 11:15:45;;;;;;;11.23;8.68;;;9.20;90.60;;;;;;4955611;28;20201;-69
2021/03/23 11:18:17;;;;;;;12.10;9.15;;;8.80;91.00;;;;;;4961422;28;20239;-68
2021/03/23 11:20:44;;;;;;;11.43;9.00;;;8.80;91.50;;;;;;4948714;28;20220;-68
2021/03/23 11:23:29;;;;;;;8.77;7.47;;;8.80;90.10;;;;;;4949279;28;20207;-68
2021/03/23 11:25:56;;;;;;;10.77;8.50;;;8.80;90.60;;;;;;4964204;28;20204;-69
2021/03/23 11:28:22;;;;;;;13.02;8.85;;;8.90;91.40;;;;;;4952885;28;20193;-68
2021/03/23 11:30:49;;;;;;;8.18;6.95;;;8.90;91.00;;;;;;4957352;28;20733;-69
2021/03/23 11:33:16;;;;;;;9.60;7.47;;;9.20;90.10;;;;;;4949433;28;20204;-70
2021/03/23 11:35:46;;;;;;;8.70;7.15;;;9.10;90.70;;;;;;4952811;28;20206;-67
2021/03/23 11:38:12;;;;;;;9.35;7.95;;;9.30;89.60;;;;;;4949557;28;20227;-67
2021/03/23 11:40:40;;;;;;;11.07;6.80;;;9.00;90.00;;;;;;4954266;28;20260;-69
2021/03/23 11:43:07;;;;;;;9.63;7.80;;;9.10;90.40;;;;;;4943582;28;20248;-68
2021/03/23 11:45:38;;;;;;;9.43;7.05;;;9.20;89.50;;;;;;4955373;28;20252;-68
2021/03/23 11:48:10;;;;;;;10.57;6.57;;;8.90;90.60;;;;;;4952383;28;20381;-67
2021/03/23 11:50:38;;;;;;;9.40;7.20;;;8.70;90.60;;;;;;4949088;28;20197;-68
2021/03/23 11:53:05;;;;;;;10.35;7.35;;;8.60;90.60;;;;;;4957595;28;20300;-69
2021/03/23 11:55:36;;;;;;;8.05;6.60;;;8.50;91.30;;;;;;4948928;28;20201;-69
2021/03/23 11:58:04;;;;;;;15.48;8.23;;;8.50;91.80;;;;;;4953309;28;20263;-67
2021/03/23 12:00:32;;;;;;;8.95;7.03;;;8.60;91.10;;;;;;4955255;28;20196;-68
2021/03/23 12:03:00;;;;;;;10.90;6.95;;;8.50;91.10;;;;;;4941275;28;20687;-67
2021/03/23 12:05:28;;;;;;;10.77;6.90;;;8.40;91.30;;;;;;4953525;28;20691;-69
2021/03/23 12:08:17;;;;;;;8.35;7.28;;;8.40;91.20;;;;;;4954283;28;20315;-69
2021/03/23 12:10:49;;;;;;;12.40;6.20;;;8.30;90.60;;;;;;4948713;28;20300;-68
2021/03/23 12:13:23;;;;;;;7.45;6.40;;;8.40;90.90;;;;;;4955684;28;20204;-68
2021/03/23 12:15:54;;;;;;;10.15;6.82;;;8.60;89.70;;;;;;4956800;28;20220;-68
2021/03/23 12:18:22;;;;;;;8.20;7.18;;;8.50;89.80;;;;;;4953858;28;20256;-68
2021/03/23 12:20:55;;;;;;;8.57;7.45;;;8.60;90.10;;;;;;4956705;28;20209;-63
2021/03/23 12:23:22;;;;;;;9.43;6.40;;;8.80;89.80;;;;;;4963242;28;20193;-62
2021/03/23 12:25:49;;;;;;;8.65;6.65;;;8.70;90.60;;;;;;4953516;28;20932;-69
2021/03/23 12:28:16;;;;;;;8.55;6.57;;;8.80;90.70;;;;;;4956542;28;20205;-68
2021/03/23 12:30:42;;;;;;;8.57;6.60;;;9.10;90.60;;;;;;4953368;28;20219;-68
2021/03/23 12:33:09;;;;;;;8.45;6.57;;;9.30;90.00;;;;;;4958201;28;20220;-67
2021/03/23 12:35:35;;;;;;;8.27;6.72;;;9.50;88.90;;;;;;4958734;28;20237;-67
2021/03/23 12:38:05;;;;;;;8.35;7.10;;;9.60;85.80;;;;;;4966668;28;20318;-68
2021/03/23 12:40:33;;;;;;;7.88;6.50;;;9.30;87.90;;;;;;4955254;28;20225;-68
2021/03/23 12:42:59;;;;;;;8.80;7.20;;;9.70;86.20;;;;;;4955764;28;20251;-68
2021/03/23 12:45:28;;;;;;;8.57;7.10;;;9.70;86.30;;;;;;4957259;28;20221;-68
2021/03/23 12:47:55;;;;;;;9.00;6.72;;;9.70;85.10;;;;;;4947611;28;20475;-68
2021/03/23 12:50:23;;;;;;;8.98;6.53;;;9.40;85.00;;;;;;4959812;28;20196;-68
2021/03/23 12:52:50;;;;;;;7.13;6.07;;;9.70;86.20;;;;;;4964716;28;20217;-69
2021/03/23 12:55:19;;;;;;;9.48;6.65;;;9.60;85.10;;;;;;4958388;28;20205;-68
2021/03/23 12:57:46;;;;;;;10.18;5.85;;;9.50;86.70;;;;;;4958958;28;20388;-68
2021/03/23 13:00:26;;;;;;;7.90;5.93;;;9.60;87.70;;;;;;4959148;28;20205;-67
2021/03/23 13:02:54;;;;;;;10.45;6.40;;;9.80;84.70;;;;;;4959145;28;20283;-68